createdAt,value
2022-09-28T00:01:23.639Z,97097.69
2022-09-28T00:03:53.583Z,97102.09
2022-09-28T00:06:24.580Z,97095.44
2022-09-28T00:08:51.942Z,97097.13
2022-09-28T00:11:21.684Z,97093.31
2022-09-28T00:13:51.802Z,97089.16
2022-09-28T00:16:22.869Z,97096.13
2022-09-28T00:18:52.512Z,97106.06
2022-09-28T00:21:25.043Z,97102.38
2022-09-28T00:24:22.936Z,97091.06
2022-09-28T00:26:55.384Z,97088.56
2022-09-28T00:29:23.627Z,97090.78
2022-09-28T00:32:00.085Z,97088.25
2022-09-28T00:34:27.566Z,97089.16
2022-09-28T00:36:54.806Z,97086.84
2022-09-28T00:39:21.817Z,97074.69
2022-09-28T00:41:49.164Z,97076.91
2022-09-28T00:44:25.605Z,97073.19
2022-09-28T00:47:08.313Z,97068.13
2022-09-28T00:49:42.916Z,97081.22
2022-09-28T00:52:15.872Z,97069.91
2022-09-28T00:54:46.046Z,97047.56
2022-09-28T00:57:14.017Z,97047.75
2022-09-28T00:59:42.248Z,97055.22
2022-09-28T01:02:10.704Z,97069.13
2022-09-28T01:04:38.945Z,97079.31
2022-09-28T01:07:09.027Z,97067.81
2022-09-28T01:09:39.262Z,97061.09
2022-09-28T01:12:07.237Z,97061.59
2022-09-28T01:14:34.524Z,97059.09
2022-09-28T01:17:13.651Z,97061.50
2022-09-28T01:20:07.934Z,97067.47
2022-09-28T01:23:00.314Z,97073.31
2022-09-28T01:25:39.414Z,97071.16
2022-09-28T01:28:18.108Z,97072.25
2022-09-28T01:31:00.063Z,97068.84
2022-09-28T01:33:37.304Z,97075.50
2022-09-28T01:36:25.329Z,97073.78
2022-09-28T01:39:06.281Z,97065.00
2022-09-28T01:41:36.952Z,97071.28
2022-09-28T01:44:08.905Z,97060.16
2022-09-28T01:46:44.777Z,97066.19
2022-09-28T01:49:24.402Z,97075.34
2022-09-28T01:51:57.974Z,97079.59
2022-09-28T01:54:36.554Z,97078.97
2022-09-28T01:57:18.576Z,97068.13
2022-09-28T01:59:56.482Z,97066.25
2022-09-28T02:02:32.611Z,97066.44
2022-09-28T02:05:17.195Z,97062.38
2022-09-28T02:08:04.329Z,97063.69
2022-09-28T02:10:54.598Z,97073.19
2022-09-28T02:13:31.082Z,97080.94
2022-09-28T02:16:23.185Z,97073.53
2022-09-28T02:18:51.471Z,97078.59
2022-09-28T02:21:24.126Z,97072.16
2022-09-28T02:24:10.166Z,97065.75
2022-09-28T02:26:42.179Z,97075.03
2022-09-28T02:29:09.374Z,97080.44
2022-09-28T02:31:36.396Z,97087.72
2022-09-28T02:34:03.631Z,97084.03
2022-09-28T02:36:31.470Z,97087.72
2022-09-28T02:38:58.578Z,97090.78
2022-09-28T02:41:46.902Z,97091.00
2022-09-28T02:44:30.758Z,97077.31
2022-09-28T02:47:10.905Z,97076.69
2022-09-28T02:50:07.239Z,97079.44
2022-09-28T02:52:40.175Z,97083.03
2022-09-28T02:55:12.867Z,97090.31
2022-09-28T02:57:46.032Z,97092.03
2022-09-28T03:00:19.456Z,97102.84
2022-09-28T03:03:18.127Z,97102.97
2022-09-28T03:06:21.527Z,97116.50
2022-09-28T03:08:58.119Z,97110.94
2022-09-28T03:11:52.002Z,97104.00
2022-09-28T03:14:19.544Z,97107.22
2022-09-28T03:16:51.861Z,97109.56
2022-09-28T03:19:25.039Z,97094.88
2022-09-28T03:21:52.295Z,97096.72
2022-09-28T03:24:19.251Z,97104.16
2022-09-28T03:26:46.657Z,97106.69
2022-09-28T03:29:14.533Z,97119.00
2022-09-28T03:31:44.389Z,97125.47
2022-09-28T03:34:12.025Z,97120.09
2022-09-28T03:36:38.992Z,97121.97
2022-09-28T03:39:05.888Z,97127.22
2022-09-28T03:41:32.835Z,97122.47
2022-09-28T03:43:59.871Z,97123.50
2022-09-28T03:46:28.577Z,97124.66
2022-09-28T03:49:01.645Z,97130.91
2022-09-28T03:51:29.119Z,97128.72
2022-09-28T03:53:56.042Z,97127.88
2022-09-28T03:56:23.127Z,97132.13
2022-09-28T03:58:50.339Z,97121.78
2022-09-28T04:01:18.022Z,97123.63
2022-09-28T04:03:47.225Z,97112.50
2022-09-28T04:06:14.971Z,97116.72
2022-09-28T04:08:43.139Z,97117.06
2022-09-28T04:11:09.995Z,97117.06
2022-09-28T04:13:37.381Z,97119.09
2022-09-28T04:16:06.265Z,97118.16
2022-09-28T04:18:35.276Z,97145.16
2022-09-28T04:21:11.489Z,97148.72
2022-09-28T04:23:42.652Z,97138.75
2022-09-28T04:26:25.449Z,97139.09
2022-09-28T04:29:11.367Z,97145.00
2022-09-28T04:31:53.613Z,97142.28
2022-09-28T04:34:23.677Z,97134.00
2022-09-28T04:36:51.290Z,97141.09
2022-09-28T04:39:21.859Z,97147.84
2022-09-28T04:41:52.123Z,97140.06
2022-09-28T04:44:19.177Z,97127.59
2022-09-28T04:47:04.225Z,97136.53
2022-09-28T04:49:32.028Z,97124.69
2022-09-28T04:52:07.826Z,97127.22
2022-09-28T04:54:35.490Z,97130.25
2022-09-28T04:57:03.843Z,97137.19
2022-09-28T04:59:30.879Z,97128.59
2022-09-28T05:01:58.051Z,97139.91
2022-09-28T05:04:43.642Z,97141.09
2022-09-28T05:07:31.484Z,97146.00
2022-09-28T05:10:01.808Z,97156.47
2022-09-28T05:12:31.225Z,97164.75
2022-09-28T05:15:00.668Z,97166.41
2022-09-28T05:17:28.680Z,97154.94
2022-09-28T05:20:24.485Z,97168.25
2022-09-28T05:22:52.319Z,97150.13
2022-09-28T05:25:19.411Z,97171.59
2022-09-28T05:27:57.534Z,97163.91
2022-09-28T05:30:39.586Z,97171.59
2022-09-28T05:33:26.447Z,97166.09
2022-09-28T05:36:13.252Z,97174.44
2022-09-28T05:38:42.107Z,97178.38
2022-09-28T05:41:09.291Z,97178.56
2022-09-28T05:43:36.730Z,97161.88
2022-09-28T05:46:06.143Z,97169.06
2022-09-28T05:48:35.940Z,97166.88
2022-09-28T05:51:02.973Z,97185.78
2022-09-28T05:53:30.467Z,97176.38
2022-09-28T05:55:59.683Z,97178.28
2022-09-28T05:58:28.150Z,97162.78
2022-09-28T06:00:58.464Z,97166.19
2022-09-28T06:03:27.208Z,97157.59
2022-09-28T06:05:54.604Z,97166.94
2022-09-28T06:08:21.826Z,97174.72
2022-09-28T06:11:01.056Z,97179.66
2022-09-28T06:13:28.966Z,97179.50
2022-09-28T06:15:56.128Z,97186.50
2022-09-28T06:18:23.222Z,97195.16
2022-09-28T06:21:14.825Z,97190.84
2022-09-28T06:23:48.998Z,97189.09
2022-09-28T06:26:17.703Z,97181.06
2022-09-28T06:28:45.576Z,97185.75
2022-09-28T06:31:13.843Z,97186.78
2022-09-28T06:33:45.489Z,97176.88
2022-09-28T06:36:13.823Z,97170.84
2022-09-28T06:38:40.785Z,97175.28
2022-09-28T06:41:08.059Z,97179.00
2022-09-28T06:43:35.331Z,97180.31
2022-09-28T06:46:21.443Z,97187.50
2022-09-28T06:48:49.078Z,97195.13
2022-09-28T06:51:25.328Z,97187.06
2022-09-28T06:54:07.327Z,97186.56
2022-09-28T06:56:40.284Z,97181.22
2022-09-28T06:59:07.244Z,97184.41
2022-09-28T07:01:35.718Z,97181.53
2022-09-28T07:04:18.502Z,97179.59
2022-09-28T07:07:18.463Z,97192.25
2022-09-28T07:10:04.473Z,97187.31
2022-09-28T07:12:44.316Z,97179.03
2022-09-28T07:15:24.826Z,97194.59
2022-09-28T07:18:02.784Z,97183.94
2022-09-28T07:20:45.382Z,97179.19
2022-09-28T07:23:19.810Z,97182.56
2022-09-28T07:26:08.149Z,97181.53
2022-09-28T07:28:56.043Z,97190.19
2022-09-28T07:31:33.797Z,97180.53
2022-09-28T07:34:44.147Z,97178.22
2022-09-28T07:37:19.018Z,97185.59
2022-09-28T07:40:06.207Z,97188.09
2022-09-28T07:42:38.425Z,97180.53
2022-09-28T07:45:07.462Z,97183.47
2022-09-28T07:47:35.385Z,97170.00
2022-09-28T07:50:32.430Z,97175.84
2022-09-28T07:53:06.283Z,97188.03
2022-09-28T07:56:07.469Z,97183.81
2022-09-28T07:58:43.184Z,97185.84
2022-09-28T08:01:31.411Z,97187.91
2022-09-28T08:04:00.169Z,97196.25
2022-09-28T08:06:27.072Z,97194.09
2022-09-28T08:08:56.818Z,97196.56
2022-09-28T08:11:32.783Z,97192.13
2022-09-28T08:14:23.664Z,97183.03
2022-09-28T08:17:11.117Z,97190.31
2022-09-28T08:20:03.155Z,97188.78
2022-09-28T08:22:32.487Z,97180.09
2022-09-28T08:25:00.658Z,97190.44
2022-09-28T08:27:29.882Z,97192.88
2022-09-28T08:29:56.940Z,97194.69
2022-09-28T08:32:59.759Z,97191.31
2022-09-28T08:35:42.380Z,97193.19
2022-09-28T08:38:14.992Z,97178.56
2022-09-28T08:41:21.507Z,97181.22
2022-09-28T08:44:16.238Z,97181.22
2022-09-28T08:47:30.060Z,97186.88
2022-09-28T08:50:29.350Z,97178.88
2022-09-28T08:53:38.974Z,97192.31
2022-09-28T08:56:32.741Z,97191.88
2022-09-28T08:59:04.594Z,97177.00
2022-09-28T09:01:38.789Z,97163.66
2022-09-28T09:04:10.492Z,97170.38
2022-09-28T09:07:25.115Z,97170.56
2022-09-28T09:10:36.715Z,97165.91
2022-09-28T09:13:23.793Z,97167.09
2022-09-28T09:16:24.365Z,97169.56
2022-09-28T09:19:36.563Z,97166.06
2022-09-28T09:22:42.351Z,97157.16
2022-09-28T09:25:35.373Z,97155.59
2022-09-28T09:28:35.384Z,97153.22
2022-09-28T09:31:20.727Z,97147.22
2022-09-28T09:34:25.531Z,97150.59
2022-09-28T09:37:28.600Z,97145.69
2022-09-28T09:44:18.535Z,97135.16
2022-09-28T09:47:13.600Z,97139.50
2022-09-28T09:50:30.460Z,97122.47
2022-09-28T09:53:06.921Z,97119.25
2022-09-28T09:55:42.104Z,97131.06
2022-09-28T10:13:13.626Z,97105.09
2022-09-28T10:15:42.554Z,97097.94
2022-09-28T10:18:21.091Z,97097.19
2022-09-28T10:21:06.935Z,97094.28
2022-09-28T10:23:59.734Z,97084.09
2022-09-28T10:26:36.226Z,97077.25
2022-09-28T10:29:13.239Z,97072.81
2022-09-28T10:31:45.473Z,97084.13
2022-09-28T10:34:28.879Z,97078.63
2022-09-28T10:37:01.407Z,97084.63
2022-09-28T10:39:47.190Z,97088.28
2022-09-28T10:42:21.261Z,97086.47
2022-09-28T10:45:23.449Z,97079.75
2022-09-28T10:47:52.220Z,97078.41
2022-09-28T10:50:23.787Z,97077.41
2022-09-28T10:53:32.097Z,97068.16
2022-09-28T10:56:18.503Z,97060.72
2022-09-28T10:58:47.036Z,97063.88
2022-09-28T11:01:26.866Z,97058.47
2022-09-28T11:04:02.558Z,97037.13
2022-09-28T11:06:32.959Z,97045.44
2022-09-28T11:09:03.125Z,97039.00
2022-09-28T11:11:32.047Z,97037.84
2022-09-28T11:14:04.287Z,97031.94
2022-09-28T11:16:36.756Z,97038.06
2022-09-28T11:19:20.332Z,97042.63
2022-09-28T11:21:48.593Z,97041.59
2022-09-28T11:24:19.101Z,97041.31
2022-09-28T11:26:50.310Z,97036.00
2022-09-28T11:29:45.511Z,97028.75
2022-09-28T11:32:24.620Z,97029.22
2022-09-28T11:35:19.878Z,97023.63
2022-09-28T11:37:59.642Z,97024.19
2022-09-28T11:41:15.684Z,97016.47
2022-09-28T11:44:05.728Z,97007.06
2022-09-28T11:46:44.581Z,97007.06
2022-09-28T11:49:22.776Z,97008.75
2022-09-28T11:51:52.874Z,97001.56
2022-09-28T11:54:19.892Z,97004.31
2022-09-28T11:56:49.880Z,97003.22
2022-09-28T11:59:40.004Z,96993.50
2022-09-28T12:02:17.080Z,96987.69
2022-09-28T12:05:07.979Z,96990.16
2022-09-28T12:07:44.731Z,96967.78
2022-09-28T12:11:00.907Z,96981.16
2022-09-28T12:14:04.882Z,96979.31
2022-09-28T12:19:44.214Z,96985.34
2022-09-28T12:22:25.604Z,96982.84
2022-09-28T12:24:56.787Z,96979.13
2022-09-28T12:27:29.783Z,96984.59
2022-09-28T12:30:04.628Z,96978.88
2022-09-28T12:32:47.001Z,96967.22
2022-09-28T12:35:20.186Z,96966.06
2022-09-28T12:38:24.700Z,96977.84
2022-09-28T12:40:55.806Z,96964.50
2022-09-28T12:43:33.558Z,96970.09
2022-09-28T12:46:13.854Z,96958.22
2022-09-28T12:49:51.466Z,96964.97
2022-09-28T12:51:55.024Z,96976.22
2022-09-28T12:54:42.172Z,96968.75
2022-09-28T12:57:24.493Z,96969.06
2022-09-28T13:00:12.516Z,96974.88
2022-09-28T13:03:07.825Z,96971.78
2022-09-28T13:06:07.093Z,96972.78
2022-09-28T13:09:06.747Z,96972.09
2022-09-28T13:11:43.907Z,96954.91
2022-09-28T13:14:49.757Z,96951.50
2022-09-28T13:18:01.031Z,96964.41
2022-09-28T13:20:35.900Z,96959.81
2022-09-28T13:23:16.577Z,96978.28
2022-09-28T13:25:51.042Z,96963.00
2022-09-28T13:28:26.174Z,96963.44
2022-09-28T13:33:45.080Z,96953.38
2022-09-28T13:36:33.037Z,96957.63
2022-09-28T13:39:00.930Z,96960.94
2022-09-28T13:41:40.508Z,96958.50
2022-09-28T13:44:13.946Z,96950.44
2022-09-28T13:47:10.184Z,96954.63
2022-09-28T13:49:56.716Z,96960.41
2022-09-28T13:52:44.567Z,96949.09
2022-09-28T13:55:22.303Z,96952.69
2022-09-28T13:57:54.281Z,96949.09
2022-09-28T14:00:44.472Z,96951.59
2022-09-28T14:03:26.138Z,96942.94
2022-09-28T14:06:04.613Z,96930.53
2022-09-28T14:08:38.679Z,96935.28
2022-09-28T14:11:36.887Z,96935.47
2022-09-28T14:14:14.773Z,96932.03
2022-09-28T14:16:43.414Z,96937.09
2022-09-28T14:19:32.444Z,96947.00
2022-09-28T14:22:11.453Z,96938.13
2022-09-28T14:24:48.243Z,96927.94
2022-09-28T14:27:21.021Z,96940.56
2022-09-28T14:29:54.302Z,96936.13
2022-09-28T14:32:24.209Z,96937.28
2022-09-28T14:35:01.653Z,96941.75
2022-09-28T14:37:56.406Z,96938.53
2022-09-28T14:40:49.752Z,96934.50
2022-09-28T14:43:35.832Z,96940.44
2022-09-28T14:46:12.892Z,96929.63
2022-09-28T14:48:49.195Z,96943.66
2022-09-28T14:51:34.115Z,96955.94
2022-09-28T14:54:14.124Z,96953.03
2022-09-28T14:57:09.739Z,96949.78
2022-09-28T14:59:43.588Z,96940.25
2022-09-28T15:02:11.121Z,96948.25
2022-09-28T15:04:47.194Z,96950.41
2022-09-28T15:07:33.379Z,96954.75
2022-09-28T15:10:02.751Z,96943.13
2022-09-28T15:12:32.797Z,96955.38
2022-09-28T15:15:08.640Z,96956.22
2022-09-28T15:17:40.876Z,96950.16
2022-09-28T15:20:41.817Z,96961.00
2022-09-28T15:23:37.315Z,96967.03
2022-09-28T15:26:09.745Z,96958.66
2022-09-28T15:28:39.455Z,96960.47
2022-09-28T15:31:06.629Z,96952.41
2022-09-28T15:33:53.700Z,96956.53
2022-09-28T15:36:25.655Z,96959.94
2022-09-28T15:38:59.543Z,96962.81
2022-09-28T15:41:27.459Z,96972.06
2022-09-28T15:44:12.336Z,96976.50
2022-09-28T15:46:43.228Z,96971.31
2022-09-28T15:49:45.496Z,96982.66
2022-09-28T15:52:42.960Z,96981.56
2022-09-28T15:55:21.112Z,96983.00
2022-09-28T15:57:49.711Z,96988.00
2022-09-28T16:00:28.993Z,96989.75
2022-09-28T16:03:22.309Z,96979.47
2022-09-28T16:05:58.479Z,96974.75
2022-09-28T16:08:33.099Z,96989.63
2022-09-28T16:11:18.406Z,96986.66
2022-09-28T16:13:48.970Z,96989.03
2022-09-28T16:16:17.230Z,96989.28
2022-09-28T16:18:49.029Z,96996.25
2022-09-28T16:21:39.266Z,96989.13
2022-09-28T16:24:08.599Z,96992.44
2022-09-28T16:26:39.039Z,96988.59
2022-09-28T16:29:25.908Z,96988.06
2022-09-28T16:31:53.314Z,97002.31
2022-09-28T16:34:24.609Z,97000.19
2022-09-28T16:36:51.728Z,96999.72
2022-09-28T16:39:19.324Z,96999.16
2022-09-28T16:41:53.974Z,97019.78
2022-09-28T16:44:28.511Z,97018.47
2022-09-28T16:46:58.584Z,97006.28
2022-09-28T16:49:26.926Z,97010.91
2022-09-28T16:51:54.334Z,97008.19
2022-09-28T16:54:42.741Z,97009.84
2022-09-28T16:57:15.072Z,97004.19
2022-09-28T16:59:42.060Z,97007.19
2022-09-28T17:05:14.012Z,97020.28
2022-09-28T17:07:41.000Z,97016.66
2022-09-28T17:10:50.114Z,97014.69
2022-09-28T17:13:33.379Z,97023.84
2022-09-28T17:16:09.087Z,97018.16
2022-09-28T17:18:40.140Z,97024.53
2022-09-28T17:21:12.437Z,97024.84
2022-09-28T17:23:39.669Z,97036.28
2022-09-28T17:26:06.855Z,97037.22
2022-09-28T17:28:36.421Z,97027.63
2022-09-28T17:31:04.991Z,97035.72
2022-09-28T17:33:32.394Z,97038.06
2022-09-28T17:36:01.555Z,97043.38
2022-09-28T17:38:28.562Z,97048.06
2022-09-28T17:40:55.737Z,97047.66
2022-09-28T17:43:22.769Z,97044.34
2022-09-28T17:45:50.833Z,97049.03
2022-09-28T17:48:23.474Z,97051.16
2022-09-28T17:50:51.278Z,97052.44
2022-09-28T17:53:18.399Z,97059.63
2022-09-28T17:55:47.891Z,97048.34
2022-09-28T17:58:16.778Z,97061.00
2022-09-28T18:00:46.123Z,97058.69
2022-09-28T18:03:16.308Z,97055.16
2022-09-28T18:05:54.074Z,97060.22
2022-09-28T18:08:23.053Z,97067.00
2022-09-28T18:10:50.740Z,97064.06
2022-09-28T18:13:18.182Z,97070.59
2022-09-28T18:15:45.170Z,97070.41
2022-09-28T18:18:13.062Z,97070.22
2022-09-28T18:20:41.683Z,97075.47
2022-09-28T18:23:08.857Z,97072.13
2022-09-28T18:25:39.695Z,97080.94
2022-09-28T18:28:07.115Z,97086.47
2022-09-28T18:30:34.370Z,97084.78
2022-09-28T18:33:01.877Z,97088.56
2022-09-28T18:35:29.255Z,97083.16
2022-09-28T18:37:56.790Z,97090.91
2022-09-28T18:40:24.236Z,97091.53
2022-09-28T18:42:52.238Z,97094.91
2022-09-28T18:45:19.281Z,97100.38
2022-09-28T18:47:46.944Z,97102.41
2022-09-28T18:50:15.733Z,97101.16
2022-09-28T18:52:45.002Z,97096.53
2022-09-28T18:55:12.698Z,97100.94
2022-09-28T18:57:41.705Z,97095.69
2022-09-28T19:00:11.726Z,97102.44
2022-09-28T19:02:39.284Z,97107.88
2022-09-28T19:05:07.271Z,97104.94
2022-09-28T19:07:34.839Z,97105.16
2022-09-28T19:10:02.025Z,97105.78
2022-09-28T19:12:29.557Z,97093.59
2022-09-28T19:14:56.585Z,97099.47
2022-09-28T19:17:24.129Z,97096.09
2022-09-28T19:19:52.113Z,97103.47
2022-09-28T19:22:19.302Z,97114.59
2022-09-28T19:24:46.224Z,97123.41
2022-09-28T19:27:13.971Z,97133.69
2022-09-28T19:29:40.983Z,97138.28
2022-09-28T19:32:08.255Z,97148.97
2022-09-28T19:34:35.481Z,97151.06
2022-09-28T19:37:04.040Z,97161.09
2022-09-28T19:39:31.164Z,97151.06
2022-09-28T19:42:00.505Z,97143.88
2022-09-28T19:44:28.894Z,97160.66
2022-09-28T19:47:08.234Z,97177.69
2022-09-28T19:49:37.519Z,97180.81
2022-09-28T19:52:13.259Z,97174.53
2022-09-28T19:54:57.736Z,97176.16
2022-09-28T19:57:27.884Z,97166.53
2022-09-28T20:00:00.910Z,97173.00
2022-09-28T20:02:33.894Z,97179.31
2022-09-28T20:05:03.126Z,97178.25
2022-09-28T20:07:33.075Z,97176.81
2022-09-28T20:10:01.017Z,97183.25
2022-09-28T20:12:27.920Z,97185.53
2022-09-28T20:14:55.182Z,97179.91
2022-09-28T20:17:22.867Z,97175.25
2022-09-28T20:19:51.927Z,97188.44
2022-09-28T20:22:19.443Z,97188.59
2022-09-28T20:24:47.590Z,97192.97
2022-09-28T20:27:14.598Z,97200.03
2022-09-28T20:29:43.183Z,97206.31
2022-09-28T20:32:16.441Z,97205.81
2022-09-28T20:34:43.893Z,97210.81
2022-09-28T20:37:13.766Z,97199.69
2022-09-28T20:39:44.804Z,97201.97
2022-09-28T20:42:12.654Z,97207.53
2022-09-28T20:44:39.524Z,97204.59
2022-09-28T20:47:08.317Z,97214.69
2022-09-28T20:49:37.052Z,97213.66
2022-09-28T20:52:04.231Z,97210.06
2022-09-28T20:54:31.186Z,97210.25
2022-09-28T20:56:58.518Z,97217.59
2022-09-28T20:59:26.599Z,97214.63
2022-09-28T21:01:56.520Z,97205.97
2022-09-28T21:04:24.523Z,97208.22
2022-09-28T21:06:52.006Z,97208.66
2022-09-28T21:09:19.540Z,97200.88
2022-09-28T21:11:47.106Z,97196.88
2022-09-28T21:14:14.253Z,97195.00
2022-09-28T21:16:41.131Z,97205.03
2022-09-28T21:19:08.525Z,97196.81
2022-09-28T21:21:35.603Z,97200.38
2022-09-28T21:24:03.173Z,97194.94
2022-09-28T21:26:31.715Z,97201.00
2022-09-28T21:29:02.059Z,97193.91
2022-09-28T21:31:33.002Z,97201.00
2022-09-28T21:34:00.860Z,97211.50
2022-09-28T21:36:27.732Z,97202.25
2022-09-28T21:38:56.210Z,97199.66
2022-09-28T21:41:26.019Z,97189.97
2022-09-28T21:43:53.714Z,97191.59
2022-09-28T21:46:21.225Z,97196.66
2022-09-28T21:48:53.616Z,97199.81
2022-09-28T21:51:21.456Z,97205.25
2022-09-28T21:53:49.617Z,97196.22
2022-09-28T21:56:17.615Z,97211.25
2022-09-28T21:58:44.505Z,97204.91
2022-09-28T22:01:20.855Z,97202.19
2022-09-28T22:03:51.011Z,97201.59
2022-09-28T22:06:23.722Z,97201.53
2022-09-28T22:08:51.526Z,97207.53
2022-09-28T22:11:21.371Z,97208.13
2022-09-28T22:13:54.689Z,97205.50
2022-09-28T22:16:24.672Z,97200.44
2022-09-28T22:18:51.682Z,97193.72
2022-09-28T22:21:24.448Z,97211.72
2022-09-28T22:23:52.517Z,97209.38
2022-09-28T22:26:25.883Z,97197.69
2022-09-28T22:28:58.408Z,97200.81
2022-09-28T22:31:29.575Z,97201.19
2022-09-28T22:33:57.433Z,97209.34
2022-09-28T22:36:26.001Z,97214.78
2022-09-28T22:38:55.604Z,97209.34
2022-09-28T22:41:22.523Z,97217.66
2022-09-28T22:43:51.255Z,97206.63
2022-09-28T22:46:24.676Z,97204.94
2022-09-28T22:48:54.159Z,97211.41
2022-09-28T22:51:22.286Z,97206.53
2022-09-28T22:53:50.331Z,97221.53
2022-09-28T22:56:19.191Z,97232.56
2022-09-28T22:58:47.079Z,97226.69
2022-09-28T23:01:18.019Z,97223.31
2022-09-28T23:03:45.730Z,97226.88
2022-09-28T23:06:15.063Z,97228.47
2022-09-28T23:08:43.549Z,97224.88
2022-09-28T23:11:10.535Z,97228.16
2022-09-28T23:13:39.588Z,97227.47
2022-09-28T23:16:08.876Z,97213.06
2022-09-28T23:18:38.506Z,97218.41
2022-09-28T23:21:07.919Z,97218.41
2022-09-28T23:23:35.385Z,97214.19
2022-09-28T23:26:14.302Z,97207.75
2022-09-28T23:28:42.282Z,97223.75
2022-09-28T23:31:15.482Z,97217.28
2022-09-28T23:33:43.064Z,97213.50
2022-09-28T23:36:10.042Z,97210.38
2022-09-28T23:38:37.725Z,97209.72
2022-09-28T23:41:05.502Z,97232.75
2022-09-28T23:43:33.079Z,97205.03
2022-09-28T23:46:00.112Z,97224.97
2022-09-28T23:48:27.618Z,97222.09
2022-09-28T23:50:54.533Z,97223.28
2022-09-28T23:53:21.783Z,97218.72
2022-09-28T23:55:49.067Z,97215.13
2022-09-28T23:58:16.009Z,97215.13
